createdAt,value
2023-02-14T00:00:39.215Z,89.62
2023-02-14T00:03:05.665Z,89.77
2023-02-14T00:05:32.226Z,89.46
2023-02-14T00:07:58.742Z,88.89
2023-02-14T00:10:25.393Z,88.60
2023-02-14T00:12:51.798Z,89.11
2023-02-14T00:15:24.981Z,89.12
2023-02-14T00:17:54.579Z,89.53
2023-02-14T00:20:24.546Z,89.34
2023-02-14T00:22:51.013Z,89.71
2023-02-14T00:25:18.173Z,90.03
2023-02-14T00:27:44.628Z,89.79
2023-02-14T00:30:13.135Z,90.00
2023-02-14T00:32:40.769Z,89.64
2023-02-14T00:35:08.597Z,89.61
2023-02-14T00:37:35.087Z,89.22
2023-02-14T00:40:01.660Z,89.62
2023-02-14T00:42:28.364Z,89.68
2023-02-14T00:44:54.922Z,89.12
2023-02-14T00:47:21.384Z,89.80
2023-02-14T00:49:47.851Z,89.76
2023-02-14T00:52:14.351Z,90.65
2023-02-14T00:54:40.781Z,90.14
2023-02-14T00:57:07.522Z,90.44
2023-02-14T00:59:33.952Z,90.16
2023-02-14T01:02:00.400Z,90.21
2023-02-14T01:04:27.117Z,90.72
2023-02-14T01:06:53.598Z,91.79
2023-02-14T01:09:20.059Z,91.38
2023-02-14T01:11:46.492Z,91.16
2023-02-14T01:14:12.971Z,91.05
2023-02-14T01:16:39.868Z,90.61
2023-02-14T01:19:06.547Z,90.04
2023-02-14T01:21:34.113Z,89.88
2023-02-14T01:24:03.972Z,89.77
2023-02-14T01:26:30.467Z,89.88
2023-02-14T01:28:57.107Z,89.38
2023-02-14T01:31:26.723Z,89.39
2023-02-14T01:33:54.909Z,88.69
2023-02-14T01:36:26.037Z,89.84
2023-02-14T01:38:55.611Z,89.75
2023-02-14T01:41:23.078Z,89.36
2023-02-14T01:44:15.706Z,89.21
2023-02-14T01:46:44.388Z,90.01
2023-02-14T01:49:20.381Z,89.25
2023-02-14T01:51:56.302Z,88.97
2023-02-14T01:54:26.027Z,88.56
2023-02-14T01:57:00.892Z,88.66
2023-02-14T01:59:34.282Z,89.09
2023-02-14T02:02:00.870Z,88.45
2023-02-14T02:04:34.601Z,90.63
2023-02-14T02:07:05.749Z,90.05
2023-02-14T02:09:56.555Z,89.28
2023-02-14T02:12:23.287Z,88.65
2023-02-14T02:14:53.266Z,89.84
2023-02-14T02:17:53.278Z,89.66
2023-02-14T02:21:13.529Z,89.19
2023-02-14T02:24:07.004Z,88.67
2023-02-14T02:26:48.810Z,88.46
2023-02-14T02:29:27.368Z,88.27
2023-02-14T02:32:31.575Z,88.43
2023-02-14T02:35:30.154Z,88.60
2023-02-14T02:38:41.780Z,88.62
2023-02-14T02:41:18.321Z,88.75
2023-02-14T02:44:13.311Z,88.73
2023-02-14T02:46:49.093Z,88.42
2023-02-14T02:49:52.970Z,88.69
2023-02-14T02:53:01.558Z,88.72
2023-02-14T02:55:56.383Z,89.04
2023-02-14T02:58:27.185Z,89.46
2023-02-14T03:00:55.326Z,91.49
2023-02-14T03:03:43.292Z,92.26
2023-02-14T03:06:09.807Z,92.14
2023-02-14T03:08:36.153Z,92.73
2023-02-14T03:11:04.757Z,92.13
2023-02-14T03:14:05.336Z,91.83
2023-02-14T03:16:39.529Z,91.03
2023-02-14T03:19:59.947Z,91.26
2023-02-14T03:22:37.039Z,94.24
2023-02-14T03:25:19.136Z,96.74
2023-02-14T03:27:54.137Z,97.72
2023-02-14T03:30:36.589Z,97.47
2023-02-14T03:33:14.327Z,97.37
2023-02-14T03:36:02.065Z,97.08
2023-02-14T03:38:28.523Z,97.73
2023-02-14T03:41:05.496Z,98.68
2023-02-14T03:43:37.304Z,98.76
2023-02-14T03:46:10.522Z,98.83
2023-02-14T03:48:39.308Z,99.02
2023-02-14T03:51:08.909Z,99.78
2023-02-14T03:53:38.489Z,100.00
2023-02-14T03:56:40.015Z,100.00
2023-02-14T03:59:13.920Z,100.00
2023-02-14T04:01:53.401Z,100.00
2023-02-14T04:04:24.142Z,100.00
2023-02-14T04:06:50.741Z,100.00
2023-02-14T04:09:17.288Z,100.00
2023-02-14T04:11:44.057Z,100.00
2023-02-14T04:14:10.495Z,100.00
2023-02-14T04:16:56.966Z,100.00
2023-02-14T04:19:23.410Z,100.00
2023-02-14T04:21:50.950Z,98.75
2023-02-14T04:24:17.568Z,97.93
2023-02-14T04:26:54.205Z,96.98
2023-02-14T04:29:21.311Z,95.62
2023-02-14T04:31:47.953Z,95.30
2023-02-14T04:34:15.123Z,94.88
2023-02-14T04:36:41.548Z,94.35
2023-02-14T04:39:08.009Z,94.50
2023-02-14T04:41:34.488Z,94.43
2023-02-14T04:44:00.893Z,94.27
2023-02-14T04:46:27.963Z,93.89
2023-02-14T04:48:54.416Z,94.04
2023-02-14T04:51:20.896Z,94.53
2023-02-14T04:53:47.479Z,94.13
2023-02-14T04:56:13.913Z,94.33
2023-02-14T04:58:40.372Z,94.09
2023-02-14T05:01:06.938Z,94.16
2023-02-14T05:03:33.409Z,94.09
2023-02-14T05:05:59.791Z,94.24
2023-02-14T05:08:26.182Z,93.29
2023-02-14T05:10:52.588Z,93.31
2023-02-14T05:13:18.971Z,92.34
2023-02-14T05:15:45.978Z,92.60
2023-02-14T05:18:12.449Z,92.41
2023-02-14T05:20:38.795Z,91.98
2023-02-14T05:23:05.377Z,91.92
2023-02-14T05:25:32.063Z,92.54
2023-02-14T05:27:58.476Z,91.99
2023-02-14T05:30:27.990Z,91.90
2023-02-14T05:32:54.752Z,92.03
2023-02-14T05:35:21.293Z,91.98
2023-02-14T05:37:47.796Z,91.58
2023-02-14T05:40:16.143Z,91.23
2023-02-14T05:42:43.327Z,90.54
2023-02-14T05:45:10.782Z,91.21
2023-02-14T05:47:37.381Z,91.34
2023-02-14T05:50:04.498Z,91.10
2023-02-14T05:52:30.927Z,91.21
2023-02-14T05:54:57.461Z,91.75
2023-02-14T05:57:23.859Z,91.57
2023-02-14T05:59:50.268Z,93.15
2023-02-14T06:02:16.697Z,94.18
2023-02-14T06:04:43.226Z,94.70
2023-02-14T06:07:09.652Z,96.64
2023-02-14T06:09:36.120Z,98.42
2023-02-14T06:12:02.564Z,99.74
2023-02-14T06:14:28.992Z,100.00
2023-02-14T06:16:55.466Z,100.00
2023-02-14T06:19:21.962Z,100.00
2023-02-14T06:21:48.461Z,100.00
2023-02-14T06:24:14.954Z,100.00
2023-02-14T06:26:41.417Z,100.00
2023-02-14T06:29:07.868Z,100.00
2023-02-14T06:31:34.469Z,100.00
2023-02-14T06:34:00.988Z,100.00
2023-02-14T06:36:27.875Z,100.00
2023-02-14T06:38:54.420Z,100.00
2023-02-14T06:41:20.839Z,100.00
2023-02-14T06:43:50.208Z,100.00
2023-02-14T06:46:18.150Z,100.00
2023-02-14T06:48:44.799Z,100.00
2023-02-14T06:51:11.903Z,100.00
2023-02-14T06:53:38.396Z,100.00
2023-02-14T06:56:05.271Z,100.00
2023-02-14T06:58:32.309Z,100.00
2023-02-14T07:00:59.566Z,100.00
2023-02-14T07:03:27.304Z,100.00
2023-02-14T07:05:54.421Z,100.00
2023-02-14T07:08:21.359Z,100.00
2023-02-14T07:10:47.789Z,100.00
2023-02-14T07:13:14.161Z,100.00
2023-02-14T07:15:40.569Z,100.00
2023-02-14T07:18:10.523Z,100.00
2023-02-14T07:20:37.127Z,100.00
2023-02-14T07:23:03.687Z,100.00
2023-02-14T07:25:30.138Z,100.00
2023-02-14T07:27:56.570Z,100.00
2023-02-14T07:30:23.138Z,100.00
2023-02-14T07:32:49.620Z,100.00
2023-02-14T07:35:16.189Z,100.00
2023-02-14T07:37:42.605Z,100.00
2023-02-14T07:40:14.519Z,100.00
2023-02-14T07:42:41.568Z,100.00
2023-02-14T07:45:20.742Z,100.00
2023-02-14T07:47:50.096Z,100.00
2023-02-14T07:50:16.883Z,100.00
2023-02-14T07:52:43.878Z,100.00
2023-02-14T07:55:10.511Z,100.00
2023-02-14T07:57:37.055Z,100.00
2023-02-14T08:00:05.936Z,100.00
2023-02-14T08:02:32.371Z,100.00
2023-02-14T08:04:58.827Z,100.00
2023-02-14T08:07:25.333Z,100.00
2023-02-14T08:09:51.773Z,100.00
2023-02-14T08:12:36.965Z,100.00
2023-02-14T08:15:22.278Z,100.00
2023-02-14T08:17:48.927Z,100.00
2023-02-14T08:20:15.383Z,100.00
2023-02-14T08:22:41.833Z,100.00
2023-02-14T08:25:08.496Z,100.00
2023-02-14T08:27:34.893Z,100.00
2023-02-14T08:30:01.442Z,100.00
2023-02-14T08:32:28.050Z,100.00
2023-02-14T08:34:54.535Z,100.00
2023-02-14T08:37:20.987Z,99.10
2023-02-14T08:39:47.388Z,98.33
2023-02-14T08:42:13.828Z,97.92
2023-02-14T08:44:40.340Z,98.61
2023-02-14T08:47:07.105Z,99.25
2023-02-14T08:49:33.535Z,99.90
2023-02-14T08:52:00.011Z,100.00
2023-02-14T08:54:26.514Z,98.46
2023-02-14T08:56:52.918Z,96.40
2023-02-14T08:59:19.378Z,96.11
2023-02-14T09:01:45.833Z,96.06
2023-02-14T09:04:12.297Z,97.47
2023-02-14T09:06:39.493Z,97.92
2023-02-14T09:09:07.231Z,97.16
2023-02-14T09:11:34.741Z,97.38
2023-02-14T09:14:01.253Z,97.19
2023-02-14T09:16:27.746Z,97.05
2023-02-14T09:18:54.750Z,97.77
2023-02-14T09:21:24.988Z,97.59
2023-02-14T09:23:52.272Z,97.47
2023-02-14T09:26:19.891Z,97.99
2023-02-14T09:28:46.542Z,97.52
2023-02-14T09:31:22.839Z,96.68
2023-02-14T09:33:50.441Z,95.91
2023-02-14T09:36:35.470Z,96.06
2023-02-14T09:39:01.990Z,95.14
2023-02-14T09:41:28.306Z,95.14
2023-02-14T09:43:54.691Z,95.13
2023-02-14T09:46:24.681Z,94.27
2023-02-14T09:48:53.152Z,93.23
2023-02-14T09:51:23.332Z,93.45
2023-02-14T09:53:55.096Z,94.47
2023-02-14T09:56:31.077Z,94.38
2023-02-14T09:59:12.550Z,92.69
2023-02-14T10:01:49.406Z,92.74
2023-02-14T10:04:21.637Z,93.01
2023-02-14T10:06:54.827Z,92.44
2023-02-14T10:09:42.935Z,91.71
2023-02-14T10:12:24.291Z,92.67
2023-02-14T10:14:53.416Z,92.24
2023-02-14T10:17:31.318Z,92.77
2023-02-14T10:20:05.724Z,92.06
2023-02-14T10:22:43.225Z,91.93
2023-02-14T10:25:38.921Z,90.91
2023-02-14T10:28:12.117Z,91.01
2023-02-14T10:30:40.245Z,92.08
2023-02-14T10:33:17.695Z,92.52
2023-02-14T10:35:55.457Z,91.25
2023-02-14T10:38:33.748Z,90.77
2023-02-14T10:41:08.658Z,90.99
2023-02-14T10:44:06.011Z,90.89
2023-02-14T10:46:53.584Z,89.20
2023-02-14T10:49:40.412Z,89.51
2023-02-14T10:52:27.197Z,88.37
2023-02-14T10:54:57.131Z,90.01
2023-02-14T10:57:36.062Z,93.08
2023-02-14T11:00:23.269Z,95.03
2023-02-14T11:02:53.618Z,94.53
2023-02-14T11:05:45.050Z,91.84
2023-02-14T11:08:33.092Z,90.28
2023-02-14T11:11:29.539Z,90.16
2023-02-14T11:13:55.976Z,88.83
2023-02-14T11:16:34.552Z,89.58
2023-02-14T11:19:15.996Z,89.37
2023-02-14T11:21:44.592Z,88.68
2023-02-14T11:24:36.397Z,88.95
2023-02-14T11:27:07.373Z,88.35
2023-02-14T11:29:48.122Z,88.12
2023-02-14T11:32:29.777Z,89.02
2023-02-14T11:35:04.884Z,91.12
2023-02-14T11:37:37.034Z,91.27
2023-02-14T11:40:05.197Z,91.49
2023-02-14T11:42:42.721Z,91.87
2023-02-14T11:45:27.949Z,89.61
2023-02-14T11:48:06.528Z,88.26
2023-02-14T11:50:33.120Z,88.03
2023-02-14T11:53:00.127Z,89.46
2023-02-14T11:55:29.626Z,89.81
2023-02-14T11:57:57.505Z,88.39
2023-02-14T12:00:27.026Z,87.92
2023-02-14T12:02:53.989Z,87.75
2023-02-14T12:05:23.006Z,86.02
2023-02-14T12:07:55.236Z,85.48
2023-02-14T12:10:28.039Z,88.65
2023-02-14T12:13:08.640Z,89.06
2023-02-14T12:15:43.858Z,89.45
2023-02-14T12:18:34.589Z,86.12
2023-02-14T12:21:12.702Z,84.43
2023-02-14T12:23:56.749Z,82.40
2023-02-14T12:26:35.007Z,82.27
2023-02-14T12:29:20.041Z,83.68
2023-02-14T12:31:48.501Z,86.28
2023-02-14T12:34:17.519Z,85.82
2023-02-14T12:36:50.110Z,86.54
2023-02-14T12:39:36.901Z,85.93
2023-02-14T12:42:03.465Z,84.62
2023-02-14T12:44:46.694Z,82.88
2023-02-14T12:47:40.318Z,83.31
2023-02-14T12:50:36.030Z,82.96
2023-02-14T12:53:08.146Z,83.16
2023-02-14T12:56:05.672Z,83.87
2023-02-14T12:58:38.100Z,83.84
2023-02-14T13:01:38.514Z,84.62
2023-02-14T13:04:22.608Z,82.74
2023-02-14T13:06:55.881Z,83.17
2023-02-14T13:09:47.719Z,82.95
2023-02-14T13:12:36.230Z,84.42
2023-02-14T13:15:19.976Z,85.74
2023-02-14T13:18:03.193Z,85.66
2023-02-14T13:20:48.448Z,85.19
2023-02-14T13:23:27.489Z,85.29
2023-02-14T13:26:48.517Z,84.49
2023-02-14T13:29:20.478Z,84.35
2023-02-14T13:31:48.693Z,83.72
2023-02-14T13:34:30.599Z,83.61
2023-02-14T13:36:58.813Z,82.02
2023-02-14T13:39:36.195Z,82.76
2023-02-14T13:42:05.941Z,83.56
2023-02-14T13:44:38.565Z,83.81
2023-02-14T13:47:07.959Z,83.23
2023-02-14T13:49:39.182Z,84.36
2023-02-14T13:52:06.616Z,86.70
2023-02-14T13:54:45.863Z,88.60
2023-02-14T13:57:32.176Z,87.94
2023-02-14T14:00:17.109Z,86.22
2023-02-14T14:02:47.575Z,84.51
2023-02-14T14:05:40.467Z,83.97
2023-02-14T14:08:25.028Z,84.53
2023-02-14T14:10:55.382Z,86.03
2023-02-14T14:13:40.127Z,87.12
2023-02-14T14:16:27.718Z,90.16
2023-02-14T14:18:56.280Z,88.63
2023-02-14T14:21:28.724Z,88.28
2023-02-14T14:24:14.934Z,85.70
2023-02-14T14:26:53.151Z,83.91
2023-02-14T14:29:28.484Z,83.73
2023-02-14T14:31:57.726Z,84.17
2023-02-14T14:34:27.751Z,83.51
2023-02-14T14:37:15.120Z,85.14
2023-02-14T14:39:41.851Z,86.98
2023-02-14T14:42:13.115Z,87.85
2023-02-14T14:44:51.137Z,86.76
2023-02-14T14:47:21.893Z,87.49
2023-02-14T14:49:48.757Z,88.69
2023-02-14T14:52:31.873Z,88.37
2023-02-14T14:54:59.428Z,87.31
2023-02-14T14:57:26.113Z,86.11
2023-02-14T15:00:09.441Z,87.19
2023-02-14T15:02:35.904Z,87.63
2023-02-14T15:05:25.916Z,87.79
2023-02-14T15:07:52.643Z,87.27
2023-02-14T15:10:30.662Z,86.58
2023-02-14T15:13:17.412Z,86.24
2023-02-14T15:15:50.884Z,85.35
2023-02-14T15:18:18.422Z,86.19
2023-02-14T15:20:49.663Z,86.49
2023-02-14T15:23:19.957Z,85.50
2023-02-14T15:25:49.013Z,85.70
2023-02-14T15:28:27.676Z,84.79
2023-02-14T15:30:59.576Z,84.20
2023-02-14T15:33:28.679Z,86.18
2023-02-14T15:35:56.677Z,87.30
2023-02-14T15:38:24.455Z,85.76
2023-02-14T15:40:54.524Z,86.62
2023-02-14T15:43:30.247Z,86.33
2023-02-14T15:46:34.583Z,86.12
2023-02-14T15:49:08.144Z,87.18
2023-02-14T15:51:36.441Z,87.72
2023-02-14T15:54:07.550Z,87.50
2023-02-14T15:56:43.606Z,87.57
2023-02-14T15:59:19.881Z,86.96
2023-02-14T16:01:59.602Z,87.25
2023-02-14T16:04:31.792Z,85.99
2023-02-14T16:07:21.430Z,87.62
2023-02-14T16:09:49.402Z,87.96
2023-02-14T16:12:30.883Z,88.28
2023-02-14T16:15:03.452Z,88.83
2023-02-14T16:17:34.759Z,89.28
2023-02-14T16:20:21.135Z,89.24
2023-02-14T16:22:47.606Z,89.31
2023-02-14T16:25:14.280Z,89.59
2023-02-14T16:27:40.921Z,90.16
2023-02-14T16:30:09.120Z,90.39
2023-02-14T16:32:37.040Z,90.90
2023-02-14T16:35:03.550Z,90.90
2023-02-14T16:37:34.756Z,90.81
2023-02-14T16:40:01.871Z,90.47
2023-02-14T16:42:28.366Z,90.18
2023-02-14T16:44:54.815Z,90.51
2023-02-14T16:47:21.311Z,90.72
2023-02-14T16:49:48.079Z,91.14
2023-02-14T16:52:23.466Z,91.19
2023-02-14T16:54:50.317Z,91.41
2023-02-14T16:57:21.629Z,91.45
2023-02-14T16:59:49.303Z,92.20
2023-02-14T17:02:18.378Z,92.35
2023-02-14T17:04:45.325Z,92.17
2023-02-14T17:07:14.384Z,92.05
2023-02-14T17:09:44.817Z,92.96
2023-02-14T17:12:16.951Z,93.02
2023-02-14T17:14:48.951Z,93.41
2023-02-14T17:17:16.065Z,93.60
2023-02-14T17:19:43.019Z,93.93
2023-02-14T17:22:12.967Z,94.06
2023-02-14T17:24:39.855Z,94.52
2023-02-14T17:27:07.633Z,96.35
2023-02-14T17:29:34.406Z,96.78
2023-02-14T17:32:00.972Z,98.08
2023-02-14T17:34:31.856Z,96.32
2023-02-14T17:36:58.724Z,96.08
2023-02-14T17:39:25.192Z,95.05
2023-02-14T17:41:53.144Z,93.53
2023-02-14T17:44:19.709Z,93.30
2023-02-14T17:46:46.261Z,95.56
2023-02-14T17:49:12.724Z,94.17
2023-02-14T17:51:39.294Z,92.75
2023-02-14T17:54:05.758Z,91.79
2023-02-14T17:56:32.169Z,91.38
2023-02-14T17:58:59.765Z,91.42
2023-02-14T18:01:31.474Z,91.90
2023-02-14T18:03:58.320Z,92.22
2023-02-14T18:06:26.583Z,92.32
2023-02-14T18:08:56.632Z,92.37
2023-02-14T18:11:25.882Z,92.35
2023-02-14T18:13:56.213Z,92.28
2023-02-14T18:16:22.867Z,92.13
2023-02-14T18:18:49.437Z,92.11
2023-02-14T18:21:20.252Z,91.77
2023-02-14T18:23:48.034Z,92.39
2023-02-14T18:26:17.954Z,93.04
2023-02-14T18:28:44.943Z,94.07
2023-02-14T18:31:14.585Z,94.20
2023-02-14T18:33:41.663Z,94.71
2023-02-14T18:36:12.154Z,94.58
2023-02-14T18:38:40.242Z,94.34
2023-02-14T18:41:09.264Z,94.12
2023-02-14T18:43:36.480Z,93.77
2023-02-14T18:46:09.199Z,93.33
2023-02-14T18:48:36.356Z,93.67
2023-02-14T18:51:08.716Z,93.71
2023-02-14T18:53:36.375Z,93.42
2023-02-14T18:56:07.622Z,93.47
2023-02-14T18:58:48.424Z,92.98
2023-02-14T19:01:17.701Z,93.09
2023-02-14T19:03:49.571Z,93.13
2023-02-14T19:06:16.785Z,93.86
2023-02-14T19:08:43.801Z,93.52
2023-02-14T19:11:19.692Z,92.88
2023-02-14T19:13:52.244Z,93.26
2023-02-14T19:16:30.629Z,93.53
2023-02-14T19:18:58.927Z,94.15
2023-02-14T19:21:27.758Z,94.87
2023-02-14T19:23:56.475Z,94.36
2023-02-14T19:26:30.003Z,93.93
2023-02-14T19:28:58.580Z,94.45
2023-02-14T19:31:26.300Z,93.64
2023-02-14T19:33:53.150Z,93.25
2023-02-14T19:36:21.830Z,93.94
2023-02-14T19:38:51.396Z,94.26
2023-02-14T19:41:27.486Z,94.26
2023-02-14T19:44:00.537Z,94.42
2023-02-14T19:46:28.234Z,93.72
2023-02-14T19:49:04.295Z,94.54
2023-02-14T19:51:33.397Z,94.77
2023-02-14T19:54:02.468Z,94.43
2023-02-14T19:56:32.936Z,94.59
2023-02-14T19:58:59.721Z,95.34
2023-02-14T20:01:39.381Z,95.18
2023-02-14T20:04:09.807Z,94.62
2023-02-14T20:06:40.457Z,95.11
2023-02-14T20:09:08.468Z,94.78
2023-02-14T20:11:46.555Z,94.63
2023-02-14T20:14:14.153Z,94.33
2023-02-14T20:16:40.744Z,94.13
2023-02-14T20:19:12.093Z,94.25
2023-02-14T20:21:43.355Z,92.91
2023-02-14T20:24:11.689Z,93.01
2023-02-14T20:26:39.423Z,93.27
2023-02-14T20:29:07.068Z,93.68
2023-02-14T20:31:34.512Z,93.35
2023-02-14T20:34:01.431Z,93.15
2023-02-14T20:36:28.271Z,93.15
2023-02-14T20:38:59.177Z,93.47
2023-02-14T20:41:27.590Z,92.51
2023-02-14T20:43:55.398Z,92.57
2023-02-14T20:46:22.544Z,92.55
2023-02-14T20:48:50.899Z,93.57
2023-02-14T20:51:19.094Z,93.32
2023-02-14T20:53:46.750Z,94.54
2023-02-14T20:56:14.367Z,95.93
2023-02-14T20:58:41.298Z,96.36
2023-02-14T21:01:16.319Z,97.59
2023-02-14T21:03:46.684Z,97.75
2023-02-14T21:06:14.866Z,97.97
2023-02-14T21:08:42.678Z,97.82
2023-02-14T21:11:11.646Z,97.63
2023-02-14T21:13:38.419Z,97.31
2023-02-14T21:16:08.337Z,97.06
2023-02-14T21:18:35.662Z,97.20
2023-02-14T21:21:12.163Z,98.03
2023-02-14T21:23:38.539Z,97.94
2023-02-14T21:26:05.043Z,97.46
2023-02-14T21:28:31.531Z,97.42
2023-02-14T21:31:09.104Z,98.25
2023-02-14T21:33:36.516Z,99.03
2023-02-14T21:36:14.759Z,99.76
2023-02-14T21:38:41.342Z,100.00
2023-02-14T21:41:11.388Z,99.50
2023-02-14T21:43:40.453Z,98.32
2023-02-14T21:46:09.429Z,97.78
2023-02-14T21:48:55.120Z,97.52
2023-02-14T21:51:22.394Z,97.42
2023-02-14T21:53:49.191Z,97.90
2023-02-14T21:56:19.560Z,97.34
2023-02-14T21:58:47.837Z,97.04
2023-02-14T22:01:43.858Z,96.06
2023-02-14T22:04:12.286Z,95.24
2023-02-14T22:06:40.336Z,95.42
2023-02-14T22:09:07.526Z,95.79
2023-02-14T22:11:35.032Z,96.45
2023-02-14T22:14:02.064Z,96.28
2023-02-14T22:16:28.659Z,96.72
2023-02-14T22:18:55.189Z,96.92
2023-02-14T22:21:24.871Z,96.85
2023-02-14T22:23:51.341Z,97.88
2023-02-14T22:26:22.832Z,100.00
2023-02-14T22:28:51.576Z,100.00
2023-02-14T22:31:18.952Z,99.51
2023-02-14T22:33:47.076Z,99.04
2023-02-14T22:36:13.486Z,97.71
2023-02-14T22:38:40.023Z,97.05
2023-02-14T22:41:20.458Z,97.52
2023-02-14T22:43:47.081Z,97.44
2023-02-14T22:46:22.013Z,97.50
2023-02-14T22:48:50.082Z,97.68
2023-02-14T22:51:25.281Z,97.78
2023-02-14T22:53:54.857Z,97.28
2023-02-14T22:56:26.995Z,97.28
2023-02-14T22:58:58.497Z,96.40
2023-02-14T23:01:25.891Z,96.28
2023-02-14T23:03:54.182Z,96.46
2023-02-14T23:06:20.691Z,96.47
2023-02-14T23:08:47.655Z,96.18
2023-02-14T23:11:20.785Z,96.78
2023-02-14T23:14:05.903Z,96.89
2023-02-14T23:16:50.867Z,96.77
2023-02-14T23:19:42.089Z,97.00
2023-02-14T23:22:10.205Z,98.52
2023-02-14T23:24:37.349Z,100.00
2023-02-14T23:27:04.163Z,100.00
2023-02-14T23:29:33.316Z,100.00
2023-02-14T23:31:59.870Z,100.00
2023-02-14T23:34:32.075Z,100.00
2023-02-14T23:36:59.640Z,100.00
2023-02-14T23:39:26.336Z,100.00
2023-02-14T23:41:53.213Z,100.00
2023-02-14T23:44:27.736Z,100.00
2023-02-14T23:46:56.933Z,100.00
2023-02-14T23:49:27.507Z,100.00
2023-02-14T23:51:55.279Z,100.00
2023-02-14T23:54:25.522Z,100.00
2023-02-14T23:56:52.843Z,100.00
2023-02-14T23:59:21.097Z,100.00
